createdAt,value
2018-02-24T00:00:28.604Z,101308.23
2018-02-24T00:02:57.708Z,101313.03
2018-02-24T00:05:26.708Z,101320.91
2018-02-24T00:07:55.693Z,101316.70
2018-02-24T00:11:04.755Z,101314.42
2018-02-24T00:13:33.629Z,101318.53
2018-02-24T00:16:02.904Z,101318.25
2018-02-24T00:21:06.740Z,101319.55
2018-02-24T00:26:01.328Z,101320.09
2018-02-24T00:28:30.703Z,101306.49
2018-02-24T00:30:59.840Z,101306.27
2018-02-24T00:33:28.634Z,101305.21
2018-02-24T00:35:57.728Z,101307.25
2018-02-24T00:38:26.723Z,101298.98
2018-02-24T00:40:55.691Z,101300.30
2018-02-24T00:43:24.756Z,101299.20
2018-02-24T00:45:54.540Z,101298.36
2018-02-24T00:48:23.683Z,101293.16
2018-02-24T00:50:52.679Z,101287.47
2018-02-24T00:53:21.794Z,101285.45
2018-02-24T00:55:51.239Z,101276.77
2018-02-24T00:58:20.770Z,101279.62
2018-02-24T01:00:49.754Z,101271.06
2018-02-24T01:03:18.720Z,101263.81
2018-02-24T01:05:47.754Z,101264.55
2018-02-24T01:08:16.708Z,101258.62
2018-02-24T01:10:45.760Z,101257.89
2018-02-24T01:13:14.730Z,101262.78
2018-02-24T01:15:43.851Z,101265.75
2018-02-24T01:18:12.740Z,101268.20
2018-02-24T01:20:41.769Z,101262.77
2018-02-24T01:23:10.778Z,101261.16
2018-02-24T01:25:39.667Z,101258.62
2018-02-24T01:28:08.853Z,101251.94
2018-02-24T01:30:37.704Z,101255.33
2018-02-24T01:33:06.712Z,101247.48
2018-02-24T01:35:35.627Z,101241.42
2018-02-24T01:38:04.659Z,101246.76
2018-02-24T01:40:33.675Z,101240.49
2018-02-24T01:43:02.687Z,101243.89
2018-02-24T01:45:31.714Z,101241.86
2018-02-24T01:48:00.655Z,101238.81
2018-02-24T01:50:41.714Z,101228.67
2018-02-24T01:53:10.730Z,101228.36
2018-02-24T01:55:39.758Z,101221.73
2018-02-24T02:00:45.734Z,101223.73
2018-02-24T02:03:15.700Z,101212.87
2018-02-24T02:05:44.756Z,101210.16
2018-02-24T02:08:14.734Z,101214.87
2018-02-24T02:10:43.684Z,101213.42
2018-02-24T02:13:12.780Z,101213.88
2018-02-24T02:15:41.666Z,101215.25
2018-02-24T02:19:39.682Z,101211.09
2018-02-24T02:22:08.706Z,101205.41
2018-02-24T02:24:37.683Z,101201.95
2018-02-24T02:27:06.673Z,101198.42
2018-02-24T02:29:35.668Z,101202.72
2018-02-24T02:32:05.551Z,101202.87
2018-02-24T02:34:34.627Z,101200.19
2018-02-24T02:37:03.735Z,101197.16
2018-02-24T02:39:38.046Z,101196.06
2018-02-24T02:42:07.766Z,101194.11
2018-02-24T02:44:36.732Z,101190.51
2018-02-24T02:47:05.737Z,101185.83
2018-02-24T02:52:04.755Z,101169.50
2018-02-24T02:54:33.758Z,101170.61
2018-02-24T02:57:02.876Z,101172.14
2018-02-24T02:59:31.539Z,101165.16
2018-02-24T03:02:00.554Z,101165.13
2018-02-24T03:04:29.754Z,101162.23
2018-02-24T03:06:58.672Z,101162.31
2018-02-24T03:09:28.510Z,101152.98
2018-02-24T03:11:57.728Z,101157.08
2018-02-24T03:14:27.169Z,101156.09
2018-02-24T03:19:32.786Z,101149.32
2018-02-24T03:22:01.726Z,101147.39
2018-02-24T03:24:30.660Z,101146.63
2018-02-24T03:26:59.758Z,101147.49
2018-02-24T03:29:28.638Z,101147.25
2018-02-24T03:31:57.682Z,101143.02
2018-02-24T03:34:26.742Z,101145.91
2018-02-24T03:36:55.734Z,101144.02
2018-02-24T03:39:24.728Z,101144.11
2018-02-24T03:41:54.730Z,101146.14
2018-02-24T03:44:23.862Z,101144.91
2018-02-24T03:46:52.776Z,101146.65
2018-02-24T03:49:21.640Z,101143.02
2018-02-24T03:51:50.714Z,101140.75
2018-02-24T03:54:19.665Z,101142.25
2018-02-24T03:56:48.712Z,101134.28
2018-02-24T03:59:17.668Z,101126.16
2018-02-24T04:01:46.668Z,101127.67
2018-02-24T04:05:07.713Z,101127.88
2018-02-24T04:07:36.757Z,101119.05
2018-02-24T04:10:05.651Z,101125.45
2018-02-24T04:12:34.696Z,101129.81
2018-02-24T04:15:03.718Z,101120.20
2018-02-24T04:17:32.726Z,101119.38
2018-02-24T04:20:01.659Z,101116.97
2018-02-24T04:22:30.871Z,101114.14
2018-02-24T04:24:59.743Z,101109.52
2018-02-24T04:27:28.682Z,101105.94
2018-02-24T04:29:57.686Z,101096.58
2018-02-24T04:32:26.672Z,101096.61
2018-02-24T04:34:55.697Z,101098.27
2018-02-24T04:37:24.690Z,101094.02
2018-02-24T04:39:53.716Z,101081.93
2018-02-24T04:42:22.700Z,101072.11
2018-02-24T04:44:51.716Z,101076.84
2018-02-24T04:47:20.663Z,101077.23
2018-02-24T04:49:49.737Z,101075.91
2018-02-24T04:52:18.660Z,101070.36
2018-02-24T04:54:47.748Z,101062.42
2018-02-24T04:57:16.632Z,101069.57
2018-02-24T04:59:46.559Z,101068.77
2018-02-24T05:02:15.661Z,101065.86
2018-02-24T05:04:44.670Z,101063.48
2018-02-24T05:07:13.750Z,101056.89
2018-02-24T05:09:42.703Z,101053.69
2018-02-24T05:12:12.258Z,101057.52
2018-02-24T05:14:41.665Z,101058.14
2018-02-24T05:17:10.679Z,101062.44
2018-02-24T05:19:40.683Z,101070.11
2018-02-24T05:22:09.671Z,101073.22
2018-02-24T05:24:38.714Z,101070.28
2018-02-24T05:27:07.691Z,101076.00
2018-02-24T05:29:36.700Z,101070.73
2018-02-24T05:32:05.750Z,101077.20
2018-02-24T05:34:34.714Z,101074.00
2018-02-24T05:37:03.635Z,101081.19
2018-02-24T05:39:32.648Z,101085.44
2018-02-24T05:42:01.743Z,101086.87
2018-02-24T05:44:31.709Z,101093.78
2018-02-24T05:47:00.684Z,101100.92
2018-02-24T05:49:29.732Z,101103.19
2018-02-24T05:51:58.723Z,101111.41
2018-02-24T05:54:28.741Z,101111.55
2018-02-24T05:56:57.766Z,101101.48
2018-02-24T05:59:26.753Z,101104.11
2018-02-24T06:01:55.870Z,101108.34
2018-02-24T06:04:24.772Z,101107.41
2018-02-24T06:06:54.666Z,101113.98
2018-02-24T06:09:23.735Z,101105.52
2018-02-24T06:11:52.854Z,101113.23
2018-02-24T06:14:21.791Z,101109.14
2018-02-24T06:16:50.862Z,101111.60
2018-02-24T06:19:20.065Z,101108.60
2018-02-24T06:21:48.664Z,101105.77
2018-02-24T06:24:17.688Z,101112.77
2018-02-24T06:26:46.772Z,101108.66
2018-02-24T06:29:16.692Z,101108.78
2018-02-24T06:31:45.765Z,101105.50
2018-02-24T06:34:14.771Z,101107.44
2018-02-24T06:36:43.748Z,101112.50
2018-02-24T06:39:12.796Z,101108.16
2018-02-24T06:41:41.856Z,101101.23
2018-02-24T06:44:10.835Z,101110.68
2018-02-24T06:46:39.729Z,101109.47
2018-02-24T06:49:08.721Z,101103.06
2018-02-24T06:51:37.758Z,101102.53
2018-02-24T06:55:13.687Z,101098.73
2018-02-24T06:57:43.249Z,101109.20
2018-02-24T07:00:12.664Z,101118.84
2018-02-24T07:02:41.685Z,101112.44
2018-02-24T07:05:10.676Z,101111.69
2018-02-24T07:07:39.668Z,101115.53
2018-02-24T07:10:08.882Z,101107.20
2018-02-24T07:12:37.727Z,101102.45
2018-02-24T07:15:06.751Z,101104.33
2018-02-24T07:17:35.611Z,101099.66
2018-02-24T07:20:04.652Z,101098.55
2018-02-24T07:22:33.693Z,101094.33
2018-02-24T07:25:02.632Z,101090.75
2018-02-24T07:27:31.778Z,101085.47
2018-02-24T07:30:00.689Z,101092.26
2018-02-24T07:32:29.677Z,101092.38
2018-02-24T07:34:58.628Z,101089.57
2018-02-24T07:37:27.765Z,101087.81
2018-02-24T07:40:52.583Z,101085.75
2018-02-24T07:43:21.592Z,101084.23
2018-02-24T07:45:50.647Z,101081.18
2018-02-24T07:48:20.793Z,101070.04
2018-02-24T07:50:49.611Z,101068.57
2018-02-24T07:53:18.668Z,101058.49
2018-02-24T07:55:47.880Z,101060.81
2018-02-24T07:58:17.651Z,101054.93
2018-02-24T08:00:46.638Z,101061.52
2018-02-24T08:03:15.711Z,101059.11
2018-02-24T08:05:44.713Z,101058.42
2018-02-24T08:08:13.903Z,101051.77
2018-02-24T08:10:42.502Z,101048.11
2018-02-24T08:13:11.629Z,101049.78
2018-02-24T08:15:40.698Z,101040.47
2018-02-24T08:18:09.648Z,101031.45
2018-02-24T08:20:38.597Z,101029.05
2018-02-24T08:23:07.697Z,101029.32
2018-02-24T08:25:36.650Z,101026.41
2018-02-24T08:28:05.849Z,101022.91
2018-02-24T08:30:34.713Z,101025.70
2018-02-24T08:33:03.822Z,101025.34
2018-02-24T08:35:32.664Z,101025.59
2018-02-24T08:38:01.670Z,101028.38
2018-02-24T08:40:30.637Z,101038.97
2018-02-24T08:42:59.720Z,101023.48
2018-02-24T08:45:28.676Z,101021.99
2018-02-24T08:47:57.668Z,101017.05
2018-02-24T08:50:26.680Z,101014.33
2018-02-24T08:52:55.623Z,101006.59
2018-02-24T08:55:24.686Z,101010.08
2018-02-24T08:57:53.717Z,101012.55
2018-02-24T09:00:22.756Z,101011.30
2018-02-24T09:02:51.726Z,101016.42
2018-02-24T09:05:20.627Z,101016.91
2018-02-24T09:07:49.721Z,101012.02
2018-02-24T09:10:18.656Z,101013.38
2018-02-24T09:12:47.752Z,101017.80
2018-02-24T09:15:16.714Z,101007.93
2018-02-24T09:17:46.209Z,101000.92
2018-02-24T09:20:15.321Z,100992.67
2018-02-24T09:22:44.502Z,101000.09
2018-02-24T09:25:13.488Z,100991.23
2018-02-24T09:27:42.776Z,100996.73
2018-02-24T09:30:11.773Z,100989.69
2018-02-24T09:32:40.640Z,100987.22
2018-02-24T09:35:09.696Z,100985.47
2018-02-24T09:37:38.729Z,100985.95
2018-02-24T09:40:07.697Z,100989.51
2018-02-24T09:42:36.773Z,100984.86
2018-02-24T09:45:05.698Z,100970.52
2018-02-24T09:47:34.632Z,100969.30
2018-02-24T09:50:04.232Z,100973.55
2018-02-24T09:52:33.664Z,100975.66
2018-02-24T09:55:02.625Z,100961.17
2018-02-24T09:57:31.656Z,100959.64
2018-02-24T10:00:00.672Z,100954.10
2018-02-24T10:02:29.716Z,100953.34
2018-02-24T10:04:58.664Z,100946.69
2018-02-24T10:07:27.706Z,100952.16
2018-02-24T10:12:42.329Z,100948.98
2018-02-24T10:15:11.616Z,100946.97
2018-02-24T10:17:40.649Z,100938.37
2018-02-24T10:20:10.608Z,100936.77
2018-02-24T10:22:39.616Z,100935.46
2018-02-24T10:25:08.665Z,100933.60
2018-02-24T10:27:37.757Z,100935.08
2018-02-24T10:30:06.844Z,100941.46
2018-02-24T10:32:35.624Z,100941.63
2018-02-24T10:35:04.668Z,100938.29
2018-02-24T10:37:33.738Z,100940.78
2018-02-24T10:40:02.649Z,100941.09
2018-02-24T10:42:31.627Z,100938.24
2018-02-24T10:45:00.737Z,100936.59
2018-02-24T10:47:29.756Z,100929.59
2018-02-24T10:49:58.683Z,100928.80
2018-02-24T10:52:27.688Z,100924.02
2018-02-24T10:54:56.628Z,100919.30
2018-02-24T10:57:25.736Z,100906.41
2018-02-24T10:59:54.705Z,100913.74
2018-02-24T11:02:23.694Z,100916.27
2018-02-24T11:04:52.667Z,100910.46
2018-02-24T11:07:21.595Z,100908.31
2018-02-24T11:09:50.617Z,100903.64
2018-02-24T11:12:19.627Z,100903.30
2018-02-24T11:14:48.694Z,100897.66
2018-02-24T11:17:17.672Z,100893.77
2018-02-24T11:19:46.752Z,100890.02
2018-02-24T11:23:25.533Z,100889.45
2018-02-24T11:25:54.516Z,100877.30
2018-02-24T11:28:23.762Z,100881.65
2018-02-24T11:30:52.699Z,100877.91
2018-02-24T11:35:30.656Z,100870.03
2018-02-24T11:37:59.730Z,100866.59
2018-02-24T11:45:08.640Z,100859.70
2018-02-24T11:47:37.693Z,100854.02
2018-02-24T11:50:06.792Z,100855.95
2018-02-24T11:52:35.669Z,100857.63
2018-02-24T11:55:04.719Z,100854.95
2018-02-24T11:57:33.690Z,100853.64
2018-02-24T12:00:03.687Z,100854.50
2018-02-24T12:02:32.715Z,100850.69
2018-02-24T12:05:01.780Z,100845.98
2018-02-24T12:07:30.749Z,100847.63
2018-02-24T12:09:59.863Z,100835.15
2018-02-24T12:12:29.162Z,100839.35
2018-02-24T12:14:58.609Z,100832.52
2018-02-24T12:18:41.496Z,100827.73
2018-02-24T12:21:43.464Z,100828.87
2018-02-24T12:24:12.714Z,100831.08
2018-02-24T12:26:41.708Z,100829.38
2018-02-24T12:29:10.761Z,100828.05
2018-02-24T12:31:39.640Z,100824.69
2018-02-24T12:34:08.708Z,100829.72
2018-02-24T12:36:37.680Z,100824.44
2018-02-24T12:39:06.772Z,100828.23
2018-02-24T12:41:35.752Z,100820.34
2018-02-24T12:44:04.906Z,100819.37
2018-02-24T12:47:54.520Z,100809.34
2018-02-24T12:51:22.769Z,100812.05
2018-02-24T12:53:52.196Z,100799.15
2018-02-24T12:56:21.536Z,100805.27
2018-02-24T12:58:50.798Z,100798.34
2018-02-24T13:03:09.762Z,100785.69
2018-02-24T13:05:38.719Z,100790.22
2018-02-24T13:08:07.794Z,100795.28
2018-02-24T13:10:36.770Z,100783.40
2018-02-24T13:13:05.691Z,100788.00
2018-02-24T13:15:35.075Z,100779.45
2018-02-24T13:18:03.753Z,100775.59
2018-02-24T13:20:32.679Z,100783.76
2018-02-24T13:23:01.803Z,100776.70
2018-02-24T13:25:30.769Z,100778.00
2018-02-24T13:27:59.755Z,100773.81
2018-02-24T13:30:28.764Z,100773.27
2018-02-24T13:32:57.750Z,100773.68
2018-02-24T13:35:26.863Z,100780.47
2018-02-24T13:37:55.873Z,100778.75
2018-02-24T13:40:24.772Z,100775.07
2018-02-24T13:42:53.848Z,100782.28
2018-02-24T13:45:22.744Z,100771.30
2018-02-24T13:47:51.737Z,100778.93
2018-02-24T13:50:20.784Z,100770.53
2018-02-24T13:52:49.827Z,100775.38
2018-02-24T13:55:18.765Z,100762.77
2018-02-24T13:57:47.848Z,100760.48
2018-02-24T14:00:16.766Z,100756.44
2018-02-24T14:02:45.879Z,100748.95
2018-02-24T14:05:14.633Z,100747.59
2018-02-24T14:07:43.628Z,100743.73
2018-02-24T14:10:12.753Z,100743.09
2018-02-24T14:12:41.639Z,100733.50
2018-02-24T14:15:10.719Z,100739.91
2018-02-24T14:17:39.660Z,100739.19
2018-02-24T14:20:08.664Z,100748.45
2018-02-24T14:22:37.750Z,100741.16
2018-02-24T14:25:06.651Z,100739.45
2018-02-24T14:27:35.720Z,100733.69
2018-02-24T14:30:05.502Z,100731.47
2018-02-24T14:32:34.714Z,100729.84
2018-02-24T14:35:03.783Z,100733.20
2018-02-24T14:37:32.700Z,100726.76
2018-02-24T14:40:01.688Z,100734.05
2018-02-24T14:42:30.727Z,100727.38
2018-02-24T14:44:59.676Z,100726.59
2018-02-24T14:47:28.729Z,100726.95
2018-02-24T14:49:57.672Z,100725.41
2018-02-24T14:52:26.623Z,100725.94
2018-02-24T14:54:55.703Z,100720.56
2018-02-24T14:57:24.712Z,100725.11
2018-02-24T15:01:23.896Z,100720.27
2018-02-24T15:03:52.438Z,100720.07
2018-02-24T15:06:22.413Z,100710.72
2018-02-24T15:08:51.596Z,100714.28
2018-02-24T15:11:20.743Z,100712.97
2018-02-24T15:13:49.684Z,100714.13
2018-02-24T15:16:52.659Z,100714.19
2018-02-24T15:19:21.653Z,100715.59
2018-02-24T15:21:50.774Z,100714.53
2018-02-24T15:24:19.619Z,100715.42
2018-02-24T15:26:48.576Z,100725.22
2018-02-24T15:29:17.702Z,100722.27
2018-02-24T15:31:45.636Z,100730.55
2018-02-24T15:34:14.788Z,100724.03
2018-02-24T15:36:43.742Z,100727.15
2018-02-24T15:39:12.738Z,100724.34
2018-02-24T15:41:41.850Z,100722.80
2018-02-24T15:44:10.649Z,100719.97
2018-02-24T15:46:39.707Z,100721.16
2018-02-24T15:49:08.710Z,100724.73
2018-02-24T15:51:37.736Z,100715.31
2018-02-24T15:54:06.629Z,100710.25
2018-02-24T15:56:36.458Z,100714.57
2018-02-24T15:59:05.761Z,100720.68
2018-02-24T16:01:34.664Z,100713.66
2018-02-24T16:04:03.760Z,100713.25
2018-02-24T16:06:32.643Z,100722.04
2018-02-24T16:09:01.766Z,100722.63
2018-02-24T16:11:30.706Z,100723.83
2018-02-24T16:13:59.717Z,100726.14
2018-02-24T16:16:28.783Z,100721.90
2018-02-24T16:18:57.809Z,100720.62
2018-02-24T16:21:26.668Z,100729.84
2018-02-24T16:23:55.711Z,100729.42
2018-02-24T16:27:44.747Z,100726.52
2018-02-24T16:30:13.875Z,100725.86
2018-02-24T16:32:42.726Z,100718.23
2018-02-24T16:35:11.671Z,100731.45
2018-02-24T16:37:40.592Z,100735.89
2018-02-24T16:40:09.699Z,100727.80
2018-02-24T16:42:38.706Z,100732.59
2018-02-24T16:45:07.685Z,100736.45
2018-02-24T16:47:36.627Z,100739.44
2018-02-24T16:50:05.702Z,100736.21
2018-02-24T16:52:34.672Z,100739.81
2018-02-24T16:55:03.645Z,100743.17
2018-02-24T16:57:32.672Z,100744.00
2018-02-24T17:00:01.750Z,100747.50
2018-02-24T17:02:30.776Z,100744.39
2018-02-24T17:04:59.670Z,100742.92
2018-02-24T17:07:28.683Z,100748.31
2018-02-24T17:09:57.705Z,100748.59
2018-02-24T17:12:26.697Z,100747.75
2018-02-24T17:14:55.595Z,100745.05
2018-02-24T17:17:24.708Z,100743.38
2018-02-24T17:19:53.722Z,100745.72
2018-02-24T17:22:22.716Z,100752.94
2018-02-24T17:24:51.718Z,100752.58
2018-02-24T17:27:20.631Z,100748.72
2018-02-24T17:29:49.639Z,100744.52
2018-02-24T17:32:18.706Z,100736.91
2018-02-24T17:34:47.640Z,100739.83
2018-02-24T17:37:16.888Z,100741.69
2018-02-24T17:39:45.425Z,100737.45
2018-02-24T17:42:14.508Z,100734.94
2018-02-24T17:44:43.760Z,100736.41
2018-02-24T17:47:12.696Z,100740.05
2018-02-24T17:49:41.632Z,100731.54
2018-02-24T17:52:10.738Z,100731.30
2018-02-24T17:54:39.635Z,100728.77
2018-02-24T17:57:08.696Z,100733.46
2018-02-24T17:59:37.679Z,100721.80
2018-02-24T18:02:06.672Z,100722.38
2018-02-24T18:05:27.776Z,100726.95
2018-02-24T18:07:56.677Z,100737.98
2018-02-24T18:10:25.753Z,100733.36
2018-02-24T18:12:54.712Z,100729.26
2018-02-24T18:15:23.781Z,100728.59
2018-02-24T18:17:52.756Z,100733.98
2018-02-24T18:20:21.731Z,100733.14
2018-02-24T18:22:50.741Z,100730.06
2018-02-24T18:26:18.789Z,100731.89
2018-02-24T18:28:47.788Z,100724.14
2018-02-24T18:31:16.852Z,100738.66
2018-02-24T18:33:45.712Z,100730.91
2018-02-24T18:36:14.726Z,100736.42
2018-02-24T18:39:48.694Z,100730.06
2018-02-24T18:42:18.565Z,100724.67
2018-02-24T18:44:47.644Z,100734.88
2018-02-24T18:47:16.782Z,100735.05
2018-02-24T18:49:45.651Z,100738.19
2018-02-24T18:52:14.672Z,100735.70
2018-02-24T18:54:43.651Z,100730.70
2018-02-24T18:57:12.754Z,100730.16
2018-02-24T18:59:41.660Z,100731.16
2018-02-24T19:02:10.684Z,100730.02
2018-02-24T19:04:39.632Z,100738.02
2018-02-24T19:07:08.679Z,100734.10
2018-02-24T19:09:38.403Z,100736.08
2018-02-24T19:14:42.518Z,100739.40
2018-02-24T19:17:11.589Z,100731.81
2018-02-24T19:19:40.639Z,100735.14
2018-02-24T19:22:09.506Z,100739.29
2018-02-24T19:24:38.676Z,100738.37
2018-02-24T19:27:07.859Z,100735.13
2018-02-24T19:29:36.717Z,100741.99
2018-02-24T19:32:05.690Z,100749.70
2018-02-24T19:34:34.611Z,100745.61
2018-02-24T19:37:03.726Z,100745.20
2018-02-24T19:39:32.768Z,100752.63
2018-02-24T19:42:02.301Z,100755.40
2018-02-24T19:44:31.664Z,100759.48
2018-02-24T19:49:49.550Z,100760.30
2018-02-24T19:52:18.834Z,100762.45
2018-02-24T19:54:47.712Z,100765.02
2018-02-24T19:57:16.659Z,100756.77
2018-02-24T19:59:45.704Z,100766.01
2018-02-24T20:02:14.760Z,100771.53
2018-02-24T20:04:43.713Z,100771.86
2018-02-24T20:07:12.628Z,100777.01
2018-02-24T20:09:41.719Z,100781.84
2018-02-24T20:12:10.714Z,100783.45
2018-02-24T20:14:39.720Z,100779.56
2018-02-24T20:17:09.040Z,100783.55
2018-02-24T20:19:39.753Z,100784.89
2018-02-24T20:22:08.727Z,100784.64
2018-02-24T20:24:37.722Z,100788.77
2018-02-24T20:27:06.685Z,100786.86
2018-02-24T20:29:35.615Z,100793.55
2018-02-24T20:32:04.670Z,100805.05
2018-02-24T20:34:33.684Z,100798.03
2018-02-24T20:37:02.717Z,100796.42
2018-02-24T20:39:31.683Z,100806.86
2018-02-24T20:42:00.681Z,100799.55
2018-02-24T20:44:29.752Z,100804.30
2018-02-24T20:46:58.742Z,100801.76
2018-02-24T20:49:27.862Z,100802.36
2018-02-24T20:51:56.745Z,100810.81
2018-02-24T20:54:25.750Z,100808.12
2018-02-24T20:56:54.672Z,100813.22
2018-02-24T20:59:23.749Z,100813.84
2018-02-24T21:04:00.456Z,100818.03
2018-02-24T21:06:29.611Z,100823.39
2018-02-24T21:08:58.740Z,100823.58
2018-02-24T21:11:27.772Z,100827.70
2018-02-24T21:13:56.711Z,100821.78
2018-02-24T21:18:56.798Z,100832.47
2018-02-24T21:21:25.876Z,100834.16
2018-02-24T21:23:54.785Z,100835.58
2018-02-24T21:26:23.798Z,100838.23
2018-02-24T21:28:52.725Z,100834.21
2018-02-24T21:35:45.688Z,100834.81
2018-02-24T21:38:14.744Z,100842.12
2018-02-24T21:40:43.700Z,100840.34
2018-02-24T21:46:41.578Z,100846.39
2018-02-24T21:49:10.745Z,100845.38
2018-02-24T21:51:39.750Z,100841.95
2018-02-24T21:54:08.710Z,100843.25
2018-02-24T21:56:37.719Z,100845.33
2018-02-24T21:59:06.706Z,100850.25
2018-02-24T22:01:35.688Z,100850.34
2018-02-24T22:05:36.061Z,100855.07
2018-02-24T22:08:04.750Z,100854.40
2018-02-24T22:10:33.656Z,100859.39
2018-02-24T22:15:48.343Z,100861.00
2018-02-24T22:18:18.166Z,100869.48
2018-02-24T22:20:47.446Z,100869.00
2018-02-24T22:23:41.463Z,100879.47
2018-02-24T22:26:10.612Z,100882.31
2018-02-24T22:31:24.101Z,100890.66
2018-02-24T22:33:52.782Z,100896.89
2018-02-24T22:36:21.734Z,100904.56
2018-02-24T22:38:50.742Z,100901.63
2018-02-24T22:41:19.631Z,100898.27
2018-02-24T22:43:48.701Z,100896.92
2018-02-24T22:46:17.627Z,100908.66
2018-02-24T22:48:52.544Z,100914.03
2018-02-24T22:51:21.628Z,100916.11
2018-02-24T22:53:50.769Z,100920.03
2018-02-24T22:56:19.692Z,100926.01
2018-02-24T22:58:48.713Z,100918.66
2018-02-24T23:01:17.718Z,100927.42
2018-02-24T23:03:46.672Z,100928.27
2018-02-24T23:06:15.728Z,100926.23
2018-02-24T23:08:44.672Z,100929.80
2018-02-24T23:11:13.681Z,100935.26
2018-02-24T23:13:42.773Z,100933.29
2018-02-24T23:16:11.627Z,100933.52
2018-02-24T23:18:40.635Z,100934.76
2018-02-24T23:21:10.157Z,100931.96
2018-02-24T23:24:59.686Z,100943.80
2018-02-24T23:30:13.772Z,100949.95
2018-02-24T23:32:43.161Z,100956.09
2018-02-24T23:35:12.319Z,100963.16
2018-02-24T23:37:41.452Z,100963.14
2018-02-24T23:40:10.449Z,100967.88
2018-02-24T23:43:34.694Z,100967.26
2018-02-24T23:46:03.677Z,100971.95
2018-02-24T23:48:32.735Z,100972.83
2018-02-24T23:51:01.794Z,100972.48
2018-02-24T23:53:30.780Z,100982.23
2018-02-24T23:55:59.965Z,100982.09
2018-02-24T23:58:28.572Z,100988.05
